Řízení letového provozu České republiky
OPMET data - Ceska Republika Aktualizace: 25.06.2019 16:25:26  UTC
SIGMET / AIRMET - NIL
Warning / Vystraha - NIL
AIREP - NIL
REG QNH
REGIONAL QNH FORECAST ISSUED 2019-06-25 14:43 AREA VALID FM/TL QNH/HPA/ : LKAA 251500/251800 1020 =
 
METAR / SPECI
METAR LKBC 251600Z AUTO 10007KT 080V140 CAVOK 29/18 Q1023=
METAR LKCV 251600Z 13011KT CAVOK 31/18 Q1022 NOSIG RMK BLU BLU=
METAR LKKB 251600Z 14008KT 100V160 CAVOK 31/16 Q1022 NOSIG RMK BLU BLU=
METAR LKKU NIL
METAR LKKV 251600Z 16005KT 130V190 CAVOK 30/15 Q1023 RMK REG QNH 1020=
METAR LKLN 251630Z AUTO VRB05KT CAVOK 31/17 Q1022=
METAR LKMT 251600Z 28005KT CAVOK 32/18 Q1023 NOSIG RMK REG QNH 1020=
METAR LKNA 251600Z 15010KT CAVOK 28/17 Q1024 NOSIG RMK BLU BLU=
METAR LKPD 251600Z 15009KT CAVOK 32/17 Q1022 NOSIG RMK BLU BLU=
METAR LKPJ 251600Z AUTO 17006KT 160V220 CAVOK 30/20 Q1023=
METAR LKPR 251600Z 13007KT 080V170 CAVOK 31/15 Q1022 NOSIG RMK REG QNH 1020=
METAR LKTB 251600Z 15008KT CAVOK 30/19 Q1023 NOSIG RMK REG QNH 1020=
METAR LKVO 251500Z 14011KT CAVOK 32/17 Q1022=
TAF
TAF LKBC NIL
TAF LKCV 251100Z 2512/2612 15008KT CAVOK      TEMPO 2512/2517 15012G22KT      BECMG 2520/2522 18004KT=
TAF AMD LKKB 251100Z 2512/2612 11012KT CAVOK      BECMG 2518/2520 18006KT=
TAF LKKU NIL
TAF LKKV 251100Z 2512/2618 14009KT CAVOK      BECMG 2518/2520 VRB02KT      BECMG 2607/2609 32006KT=
TAF LKLN NIL
TAF LKMT 251100Z 2512/2618 03005KT CAVOK      BECMG 2523/2601 22006KT      TEMPO 2610/2618 25008G18KT=
TAF COR LKNA 251100Z 2512/2612 12008KT CAVOK      TEMPO 2512/2518 15015KT=
TAF LKPD 251100Z 2512/2612 09010KT CAVOK      TEMPO 2522/2612 VRB02KT=
TAF LKPJ NIL
TAF LKPR 251100Z 2512/2618 13012KT CAVOK      BECMG 2600/2602 VRB02KT      BECMG 2609/2611 03005KT=
TAF LKTB 251100Z 2512/2618 14008KT CAVOK      BECMG 2523/2601 VRB02KT      BECMG 2607/2609 18008KT=
TAF LKVO NIL